• Join FlightAware (Why Join?)
  • Login
  • US Flag 
08:51AM EST


 

Airport Tracker/Info


-or-


 

Live Flight TrackerFlight Track Log ✈ N770NC ✈ 09-Jun-2013 ✈ KATL - KJAN

Flight Track Log - Related Links

Times and Time Zones

All times are in EDT time to prevent confusion due to time zone crossing. See the N770NC flight status page for this flight to view local times or setup timezone preferences in your user account.

Time Position Orientation Groundspeed Altitude Reporting Facility
EDT Latitude Longitude Course Direction KTS MPH feet Rate Location/Type
08:21AM 33.6500 -84.4833 260° West 195 224 3,000  Level Atlanta TRACON
08:22AM 33.6667 -84.5667 284° West 274 315 5,700 2,520 Climbing Atlanta TRACON
08:24AM 33.5453 -84.9163 260° West  Level FlightAware Approximate
08:24AM 33.6586 -84.7625 267° West 293 337 11,000  Level Atlanta Center
08:25AM 33.5274 -85.0421 260° West  Level FlightAware Approximate
08:25AM 33.6286 -84.8672 251° West 315 362 12,700  Level Atlanta Center
08:26AM 33.5082 -85.1677 259° West  Level FlightAware Approximate
08:26AM 33.6028 -84.9842 255° West 354 407 15,000  Level Atlanta Center
08:27AM 33.4888 -85.2932 260° West  Level FlightAware Approximate
08:27AM 33.5767 -85.1058 256° West 373 429 17,300  Level Atlanta Center
08:28AM 33.5528 -85.2303 257° West 384 442 18,900 1,620 Climbing Atlanta Center
08:29AM 33.5347 -85.3447 259° West 389 448 20,600 1,500 Climbing Atlanta Center
08:30AM 33.5042 -85.4764 254° West 402 463 21,900 1,920 Climbing Atlanta Center
08:31AM 33.4817 -85.6078 258° West 408 470 24,500 1,800 Climbing Atlanta Center
08:32AM 33.4569 -85.7369 257° West 408 470 25,600 1,200 Climbing Atlanta Center
08:33AM 33.4156 -85.8581 248° West 402 463 27,000 1,080 Climbing Atlanta Center
08:34AM 33.3822 -85.9867 253° West 402 463 27,800 480 Climbing Atlanta Center
08:35AM 33.3528 -86.1278 256° West 417 480 28,000 60 Climbing Atlanta Center
08:36AM 33.3292 -86.2914 260° West 449 517 28,000  Level Atlanta Center
08:37AM 33.3122 -86.4103 260° West 455 524 28,000  Level Atlanta Center
08:38AM 33.2817 -86.5808 258° West 450 518 28,000  Level Atlanta Center
08:39AM 33.2581 -86.7167 258° West 445 512 28,100 540 Climbing Atlanta Center
08:40AM 33.2297 -86.8650 257° West 445 512 29,100 900 Climbing Atlanta Center
08:41AM 33.2011 -87.0081 257° West 451 519 29,900 360 Climbing Atlanta Center
08:42AM 33.1483 -87.1203 241° Southwest 444 511 29,900  Level Atlanta Center
08:43AM 33.1011 -87.2575 248° West 444 511 30,000  Climbing Atlanta Center
08:44AM 33.0639 -87.3972 252° West 444 511 30,000  Level Atlanta Center
08:45AM 33.0222 -87.5469 252° West 444 511 30,000  Level Atlanta Center
08:47AM 32.9689 -87.6956 247° West 440 506 30,000  Level Memphis Center
08:48AM 32.9217 -87.8256 247° West 440 506 30,000  Level Memphis Center
08:49AM 32.8703 -87.9706 247° West 440 506 30,000  Level Memphis Center
08:50AM 32.8225 -88.1003 246° West 440 506 30,000  Level Memphis Center
08:51AM 32.7747 -88.2325 247° West 440 506 30,000  Level Memphis Center
08:52AM 32.7289 -88.3669 248° West 440 506 30,000  Level Memphis Center
08:53AM 32.6936 -88.5058 253° West 440 506 30,000  Level Memphis Center
08:54AM 32.6683 -88.6469 258° West 440 506 30,000 -120 Level Memphis Center
08:55AM 32.6411 -88.7931 258° West 445 512 29,800 -1,200 Descending Memphis Center
08:56AM 32.6178 -88.9367 259° West 445 512 27,700 -2,580 Descending Memphis Center
08:57AM 32.6047 -89.0822 264° West 451 519 24,700 -3,240 Descending Memphis Center
08:58AM 32.6103 -89.2203 273° West 436 502 21,300 -3,360 Descending Memphis Center
08:59AM 32.6031 -89.3511 266° West 422 486 18,000 -3,360 Descending Memphis Center
09:00AM 32.5917 -89.4769 264° West 407 468 14,600 -3,300 Descending Memphis Center
09:01AM 32.5778 -89.5881 262° West 380 437 11,500 -2,460 Descending Memphis Center
09:02AM 32.5678 -89.6819 263° West 332 382 9,700 -1,920 Descending Memphis Center
09:03AM 32.5472 -89.7708 255° West 300 345 7,700 -1,740 Descending Memphis Center
09:04AM 32.5372 -89.8569 262° West 278 320 6,300 -1,560 Descending Memphis Center
09:05AM 32.5250 -89.9361 260° West 264 304 4,600 -1,620 Descending Memphis Center
09:06AM 32.4897 -90.0050 239° Southwest 251 289 3,100 -1,260 Descending Memphis Center
09:07AM 32.4608 -90.0692 242° Southwest 236 272 2,200 -900 Descending Memphis Center